M/T Azra S — TCPN3 — position and weather

sailwx.info

Track history (hours):
 
Tides and Currents Weather Stations Pressure Air Temp Water Temp Dewpoint Dewpoint Depression Visibility Wind Speed Wind Dir Waves Ship Positions

M/T Azra S

Last reported at 2017-Oct-18 21:15 UTC. Time now 2017-Oct-19 16:49 UTC.
Position N 37°28' W 001°03'.

Length 105 m; draft 6.5 m.

Type: Ship (hazmat cat B). MMSI: 271000898.

Date/timePositionNaut miles runAvg speedWind from/ knotsBaromVisibWave heightAir tempDewpointWater temp
2017-Oct-18 21:15N 37°28' W 001°03'  
2017-Oct-15 08:00N 35°55' W 005°05'510.5
2017-Oct-15 07:30N 35°56' W 005°11'5 9.8
2017-Oct-15 07:00N 35°57' W 005°17'4 7.7
2017-Oct-15 06:30N 35°54' W 005°18'0 0.0
2017-Oct-15 06:00N 35°54' W 005°18'0 0.0
2017-Oct-15 05:30N 35°54' W 005°18'0 0.0
2017-Oct-15 05:00N 35°54' W 005°18'0 0.0
2017-Oct-15 04:30N 35°54' W 005°18'0 0.0
2017-Oct-15 04:00N 35°54' W 005°18'0 0.0
2017-Oct-15 03:30N 35°54' W 005°18'0 0.0
2017-Oct-15 03:00N 35°54' W 005°18'0 0.1
2017-Oct-15 02:30N 35°54' W 005°18'1 1.1
2017-Oct-15 02:00N 35°54' W 005°19'1 1.8
2017-Oct-15 01:30N 35°55' W 005°19'4 8.5
2017-Oct-15 01:00N 35°58' W 005°23'510.4
2017-Oct-15 00:30N 35°56' W 005°29'3 0.1
2017-Oct-13 23:48N 35°54' W 005°30'1 4.2
2017-Oct-13 23:28N 35°54' W 005°31'4 9.4
2017-Oct-13 23:00N 35°53' W 005°36'2 2.8
2017-Oct-13 22:14N 35°54' W 005°34'3 7.5
2017-Oct-13 21:47N 35°54' W 005°38'3 9.9
2017-Oct-13 21:30N 35°54' W 005°41'5 9.4
2017-Oct-13 20:59N 35°54' W 005°47'9 9.9
2017-Oct-13 20:03N 35°53' W 005°59'210.5
2017-Oct-13 19:52N 35°53' W 006°01'145 2.9
2017-Oct-11 18:14N 33°44' W 007°21'0 0.0
2017-Oct-11 17:59N 33°44' W 007°21'0 0.0
2017-Oct-11 17:29N 33°44' W 007°21'58 1.2
2017-Oct-09 16:32N 34°35' W 007°56'111.0
2017-Oct-09 16:24N 34°37' W 007°57'9710.8
2017-Oct-09 07:27N 36°03' W 008°51'510.7
2017-Oct-09 07:00N 36°07' W 008°54'510.8
2017-Oct-09 06:31N 36°12' W 008°57'510.9
2017-Oct-09 06:01N 36°17' W 009°00'611.1
2017-Oct-09 05:31N 36°21' W 009°03'510.9
2017-Oct-09 05:01N 36°26' W 009°07'510.9
2017-Oct-09 04:31N 36°27' W 009°13'510.3
2017-Oct-09 04:00N 36°29' W 009°20'510.1
2017-Oct-09 03:31N 36°32' W 009°24'510.4
2017-Oct-09 03:01N 36°36' W 009°29'510.7
2017-Oct-09 02:30N 36°40' W 009°33'510.7
2017-Oct-09 02:01N 36°44' W 009°38'510.8
2017-Oct-09 01:31N 36°49' W 009°40'611.2
2017-Oct-09 01:01N 36°55' W 009°41'610.9
2017-Oct-09 00:30N 37°00' W 009°43'710.7
2017-Oct-08 23:49N 37°07' W 009°45'511.1
2017-Oct-08 23:25N 37°12' W 009°46'1211.4
2017-Oct-08 22:24N 37°23' W 009°49'411.5
2017-Oct-08 22:00N 37°27' W 009°50'611.0
2017-Oct-08 21:30N 37°33' W 009°52'  
Track history (hours):
 
Tides and Currents Weather Stations Pressure Air Temp Water Temp Dewpoint Dewpoint Depression Visibility Wind Speed Wind Dir Waves Ship Positions

M/T Azra S

Last reported at 2017-Oct-18 21:15 UTC. Time now 2017-Oct-19 16:49 UTC.
Position N 37°28' W 001°03'.

Length 105 m; draft 6.5 m.

Type: Ship (hazmat cat B). MMSI: 271000898.

Date/timePositionNaut miles runAvg speedWind from/ knotsBaromVisibWave heightAir tempDewpointWater temp
2017-Oct-18 21:15N 37°28' W 001°03'  
2017-Oct-15 08:00N 35°55' W 005°05'510.5
2017-Oct-15 07:30N 35°56' W 005°11'5 9.8
2017-Oct-15 07:00N 35°57' W 005°17'4 7.7
2017-Oct-15 06:30N 35°54' W 005°18'0 0.0
2017-Oct-15 06:00N 35°54' W 005°18'0 0.0
2017-Oct-15 05:30N 35°54' W 005°18'0 0.0
2017-Oct-15 05:00N 35°54' W 005°18'0 0.0
2017-Oct-15 04:30N 35°54' W 005°18'0 0.0
2017-Oct-15 04:00N 35°54' W 005°18'0 0.0
2017-Oct-15 03:30N 35°54' W 005°18'0 0.0
2017-Oct-15 03:00N 35°54' W 005°18'0 0.1
2017-Oct-15 02:30N 35°54' W 005°18'1 1.1
2017-Oct-15 02:00N 35°54' W 005°19'1 1.8
2017-Oct-15 01:30N 35°55' W 005°19'4 8.5
2017-Oct-15 01:00N 35°58' W 005°23'510.4
2017-Oct-15 00:30N 35°56' W 005°29'3 0.1
2017-Oct-13 23:48N 35°54' W 005°30'1 4.2
2017-Oct-13 23:28N 35°54' W 005°31'4 9.4
2017-Oct-13 23:00N 35°53' W 005°36'2 2.8
2017-Oct-13 22:14N 35°54' W 005°34'3 7.5
2017-Oct-13 21:47N 35°54' W 005°38'3 9.9
2017-Oct-13 21:30N 35°54' W 005°41'5 9.4
2017-Oct-13 20:59N 35°54' W 005°47'9 9.9
2017-Oct-13 20:03N 35°53' W 005°59'210.5
2017-Oct-13 19:52N 35°53' W 006°01'145 2.9
2017-Oct-11 18:14N 33°44' W 007°21'0 0.0
2017-Oct-11 17:59N 33°44' W 007°21'0 0.0
2017-Oct-11 17:29N 33°44' W 007°21'58 1.2
2017-Oct-09 16:32N 34°35' W 007°56'111.0
2017-Oct-09 16:24N 34°37' W 007°57'9710.8
2017-Oct-09 07:27N 36°03' W 008°51'510.7
2017-Oct-09 07:00N 36°07' W 008°54'510.8
2017-Oct-09 06:31N 36°12' W 008°57'510.9
2017-Oct-09 06:01N 36°17' W 009°00'611.1
2017-Oct-09 05:31N 36°21' W 009°03'510.9
2017-Oct-09 05:01N 36°26' W 009°07'510.9
2017-Oct-09 04:31N 36°27' W 009°13'510.3
2017-Oct-09 04:00N 36°29' W 009°20'510.1
2017-Oct-09 03:31N 36°32' W 009°24'510.4
2017-Oct-09 03:01N 36°36' W 009°29'510.7
2017-Oct-09 02:30N 36°40' W 009°33'510.7
2017-Oct-09 02:01N 36°44' W 009°38'510.8
2017-Oct-09 01:31N 36°49' W 009°40'611.2
2017-Oct-09 01:01N 36°55' W 009°41'610.9
2017-Oct-09 00:30N 37°00' W 009°43'710.7
2017-Oct-08 23:49N 37°07' W 009°45'511.1
2017-Oct-08 23:25N 37°12' W 009°46'1211.4
2017-Oct-08 22:24N 37°23' W 009°49'411.5
2017-Oct-08 22:00N 37°27' W 009°50'611.0
2017-Oct-08 21:30N 37°33' W 009°52'  

Dump ship's entire track history